Carneys Point Township, New Jersey
Current Conditions -  °F | °C
As of 2:51 PM on Thursday 18 Dec 2014 (Local Time) from KILG Reporting Station
Overcast Overcast  
Wind Chill: 31°   Ceiling: 3800
Heat Index: 40°   Visibility: 10mi
Dew Point: 23°   Wind: 18mph
Humidity: 51%   Direction: 310°NW
Pressure: 30.05"   Gusts: 28mph
Location:  39.6981°N, 75.4502°W
Report Text: KILG 181951Z 31016G24KT 10SM OVC038 04/M05 A3005 RMK AO2 SLP176 T00441050
Loading
Personal Weather Stations






























Interactive Weather Map New forecast layout! Learn more

10-Day Weather Forecast

Advertisements
Track Severe Weather on mobile